createdAt,value
2022-09-25T00:00:51.875Z,96.30
2022-09-25T00:03:19.957Z,96.30
2022-09-25T00:05:47.602Z,96.30
2022-09-25T00:08:16.374Z,96.20
2022-09-25T00:10:45.925Z,96.20
2022-09-25T00:13:13.394Z,96.20
2022-09-25T00:15:50.104Z,96.30
2022-09-25T00:18:38.150Z,96.50
2022-09-25T00:21:06.252Z,96.50
2022-09-25T00:23:34.522Z,96.50
2022-09-25T00:26:02.723Z,96.50
2022-09-25T00:28:29.634Z,96.40
2022-09-25T00:30:57.104Z,96.40
2022-09-25T00:33:24.600Z,96.30
2022-09-25T00:35:51.657Z,96.30
2022-09-25T00:38:18.699Z,96.40
2022-09-25T00:40:45.723Z,96.40
2022-09-25T00:43:34.017Z,96.40
2022-09-25T00:46:05.582Z,96.40
2022-09-25T00:48:32.687Z,96.40
2022-09-25T00:51:01.189Z,96.40
2022-09-25T00:53:34.851Z,96.70
2022-09-25T00:56:05.238Z,96.30
2022-09-25T00:58:35.209Z,96.30
2022-09-25T01:01:02.245Z,96.30
2022-09-25T01:03:29.464Z,96.30
2022-09-25T01:05:58.259Z,96.20
2022-09-25T01:08:27.853Z,96.20
2022-09-25T01:10:55.773Z,96.30
2022-09-25T01:13:23.513Z,96.30
2022-09-25T01:16:20.458Z,96.40
2022-09-25T01:19:39.079Z,96.40
2022-09-25T01:22:30.351Z,96.20
2022-09-25T01:25:09.595Z,96.20
2022-09-25T01:28:04.436Z,96.20
2022-09-25T01:30:39.268Z,96.20
2022-09-25T01:33:18.791Z,96.30
2022-09-25T01:36:13.181Z,96.30
2022-09-25T01:38:46.094Z,96.30
2022-09-25T01:41:28.465Z,96.30
2022-09-25T01:44:14.195Z,96.40
2022-09-25T01:46:46.681Z,96.40
2022-09-25T01:49:29.647Z,96.50
2022-09-25T01:51:58.534Z,96.50
2022-09-25T01:54:47.587Z,96.50
2022-09-25T01:57:26.269Z,96.60
2022-09-25T02:00:05.815Z,96.70
2022-09-25T02:03:04.819Z,96.70
2022-09-25T02:05:46.920Z,96.70
2022-09-25T02:08:30.965Z,96.60
2022-09-25T02:11:02.361Z,96.60
2022-09-25T02:13:49.583Z,96.60
2022-09-25T02:16:43.830Z,96.60
2022-09-25T02:19:35.595Z,96.70
2022-09-25T02:22:15.140Z,96.50
2022-09-25T02:24:59.110Z,96.40
2022-09-25T02:27:28.437Z,96.40
2022-09-25T02:29:58.490Z,96.30
2022-09-25T02:32:30.361Z,96.40
2022-09-25T02:34:58.396Z,96.40
2022-09-25T02:37:26.365Z,96.10
2022-09-25T02:39:58.019Z,95.90
2022-09-25T02:42:30.556Z,95.90
2022-09-25T02:45:03.439Z,95.90
2022-09-25T02:47:56.153Z,95.80
2022-09-25T02:50:50.625Z,95.80
2022-09-25T02:53:26.733Z,95.90
2022-09-25T02:56:18.620Z,95.90
2022-09-25T02:58:52.485Z,95.90
2022-09-25T03:01:22.366Z,95.80
2022-09-25T03:03:53.413Z,95.80
2022-09-25T03:06:22.264Z,95.80
2022-09-25T03:08:54.282Z,95.70
2022-09-25T03:11:22.011Z,95.60
2022-09-25T03:14:00.518Z,95.70
2022-09-25T03:16:27.469Z,95.60
2022-09-25T03:18:54.535Z,95.60
2022-09-25T03:21:21.574Z,95.50
2022-09-25T03:23:48.501Z,95.50
2022-09-25T03:26:15.520Z,95.50
2022-09-25T03:28:42.488Z,95.50
2022-09-25T03:31:11.913Z,95.40
2022-09-25T03:33:41.748Z,95.40
2022-09-25T03:36:13.096Z,95.30
2022-09-25T03:38:41.617Z,95.30
2022-09-25T03:41:10.879Z,95.40
2022-09-25T03:43:39.676Z,95.40
2022-09-25T03:46:08.982Z,95.40
2022-09-25T03:48:36.564Z,95.40
2022-09-25T03:51:04.828Z,95.40
2022-09-25T03:53:33.632Z,95.40
2022-09-25T03:56:02.434Z,95.40
2022-09-25T03:58:29.618Z,95.40
2022-09-25T04:00:57.469Z,95.50
2022-09-25T04:03:28.019Z,95.60
2022-09-25T04:05:56.507Z,95.60
2022-09-25T04:08:25.993Z,95.50
2022-09-25T04:10:59.307Z,95.60
2022-09-25T04:13:31.960Z,95.60
2022-09-25T04:16:01.290Z,95.50
2022-09-25T04:18:31.815Z,95.50
2022-09-25T04:21:04.303Z,95.60
2022-09-25T04:23:32.436Z,95.70
2022-09-25T04:25:59.530Z,95.80
2022-09-25T04:28:27.578Z,95.90
2022-09-25T04:30:54.511Z,96.00
2022-09-25T04:33:39.822Z,95.80
2022-09-25T04:36:07.331Z,95.70
2022-09-25T04:38:34.459Z,95.70
2022-09-25T04:41:02.017Z,95.90
2022-09-25T04:43:30.063Z,96.00
2022-09-25T04:46:01.873Z,96.10
2022-09-25T04:48:29.521Z,96.10
2022-09-25T04:50:56.642Z,96.20
2022-09-25T04:53:24.063Z,96.20
2022-09-25T04:55:51.785Z,96.20
2022-09-25T04:58:19.251Z,96.20
2022-09-25T05:00:46.463Z,96.30
2022-09-25T05:03:13.640Z,96.20
2022-09-25T05:05:40.777Z,96.20
2022-09-25T05:08:07.770Z,96.20
2022-09-25T05:10:35.135Z,96.20
2022-09-25T05:13:03.908Z,96.20
2022-09-25T05:15:33.191Z,96.20
2022-09-25T05:18:05.736Z,96.20
2022-09-25T05:20:33.204Z,96.20
2022-09-25T05:23:00.246Z,96.20
2022-09-25T05:25:27.811Z,96.20
2022-09-25T05:27:57.732Z,96.20
2022-09-25T05:30:26.146Z,96.30
2022-09-25T05:32:54.167Z,96.20
2022-09-25T05:35:24.110Z,96.00
2022-09-25T05:37:51.248Z,95.80
2022-09-25T05:40:21.091Z,95.80
2022-09-25T05:42:48.564Z,95.90
2022-09-25T05:45:16.568Z,96.00
2022-09-25T05:47:44.410Z,96.10
2022-09-25T05:50:14.700Z,96.20
2022-09-25T05:52:41.812Z,96.20
2022-09-25T05:55:10.815Z,96.20
2022-09-25T05:57:38.842Z,96.20
2022-09-25T06:00:09.834Z,96.20
2022-09-25T06:02:39.587Z,96.20
2022-09-25T06:05:07.222Z,96.30
2022-09-25T06:07:34.215Z,96.30
2022-09-25T06:10:01.262Z,96.40
2022-09-25T06:12:31.922Z,96.50
2022-09-25T06:14:58.921Z,96.60
2022-09-25T06:17:25.899Z,96.60
2022-09-25T06:19:52.882Z,96.60
2022-09-25T06:22:19.872Z,96.60
2022-09-25T06:24:48.697Z,96.50
2022-09-25T06:27:15.647Z,96.50
2022-09-25T06:29:44.088Z,96.40
2022-09-25T06:32:11.144Z,96.30
2022-09-25T06:34:38.077Z,96.20
2022-09-25T06:37:05.059Z,96.20
2022-09-25T06:39:33.339Z,96.10
2022-09-25T06:42:00.322Z,96.00
2022-09-25T06:44:28.359Z,96.00
2022-09-25T06:46:55.338Z,95.80
2022-09-25T06:49:22.395Z,95.60
2022-09-25T06:51:51.150Z,95.50
2022-09-25T06:54:18.455Z,95.40
2022-09-25T06:56:49.885Z,95.30
2022-09-25T06:59:17.541Z,95.10
2022-09-25T07:01:44.605Z,95.10
2022-09-25T07:04:11.698Z,94.90
2022-09-25T07:06:38.970Z,94.50
2022-09-25T07:09:06.021Z,94.40
2022-09-25T07:11:33.062Z,94.50
2022-09-25T07:14:00.129Z,94.40
2022-09-25T07:16:30.308Z,94.30
2022-09-25T07:19:03.376Z,94.60
2022-09-25T07:21:32.378Z,94.60
2022-09-25T07:23:59.570Z,94.70
2022-09-25T07:26:29.044Z,94.40
2022-09-25T07:28:58.473Z,94.50
2022-09-25T07:31:28.538Z,94.20
2022-09-25T07:33:55.767Z,93.70
2022-09-25T07:36:22.810Z,93.50
2022-09-25T07:38:51.153Z,93.10
2022-09-25T07:41:19.855Z,93.30
2022-09-25T07:43:46.969Z,93.60
2022-09-25T07:46:14.019Z,93.20
2022-09-25T07:48:41.119Z,92.90
2022-09-25T07:51:10.601Z,93.00
2022-09-25T07:53:38.963Z,92.80
2022-09-25T07:56:07.113Z,92.90
2022-09-25T07:58:35.866Z,92.60
2022-09-25T08:01:05.276Z,92.40
2022-09-25T08:03:32.693Z,92.20
2022-09-25T08:06:09.626Z,92.10
2022-09-25T08:08:36.631Z,92.10
2022-09-25T08:11:07.112Z,92.30
2022-09-25T08:13:35.471Z,92.30
2022-09-25T08:16:03.591Z,92.40
2022-09-25T08:18:30.689Z,92.50
2022-09-25T08:21:05.059Z,92.10
2022-09-25T08:23:32.624Z,91.90
2022-09-25T08:26:00.489Z,91.70
2022-09-25T08:28:27.848Z,91.40
2022-09-25T08:30:54.881Z,91.40
2022-09-25T08:33:21.897Z,91.40
2022-09-25T08:36:00.409Z,91.40
2022-09-25T08:38:28.678Z,91.60
2022-09-25T08:40:58.735Z,91.80
2022-09-25T08:43:26.677Z,92.00
2022-09-25T08:46:13.955Z,92.20
2022-09-25T08:49:02.799Z,92.20
2022-09-25T08:51:32.481Z,92.30
2022-09-25T08:54:00.830Z,92.10
2022-09-25T08:56:29.433Z,91.90
2022-09-25T08:59:29.184Z,91.70
2022-09-25T09:02:11.363Z,91.90
2022-09-25T09:05:01.214Z,91.80
2022-09-25T09:07:42.682Z,91.90
2022-09-25T09:10:18.632Z,91.70
2022-09-25T09:12:50.387Z,91.60
2022-09-25T09:15:36.911Z,91.20
2022-09-25T09:18:25.620Z,90.90
2022-09-25T09:21:27.524Z,90.80
2022-09-25T09:24:08.767Z,90.40
2022-09-25T09:27:17.192Z,90.20
2022-09-25T09:29:53.378Z,90.40
2022-09-25T09:32:29.723Z,90.50
2022-09-25T09:35:20.597Z,90.40
2022-09-25T09:38:15.301Z,90.10
2022-09-25T09:41:01.044Z,90.00
2022-09-25T09:43:46.158Z,89.90
2022-09-25T09:46:40.484Z,89.60
2022-09-25T09:49:45.960Z,88.50
2022-09-25T09:52:17.729Z,87.30
2022-09-25T09:55:13.498Z,86.90
2022-09-25T09:57:48.913Z,86.50
2022-09-25T10:00:18.221Z,85.00
2022-09-25T10:02:52.895Z,84.90
2022-09-25T10:05:46.675Z,85.30
2022-09-25T10:08:13.942Z,84.30
2022-09-25T10:10:43.473Z,81.80
2022-09-25T10:13:37.262Z,81.80
2022-09-25T10:16:14.657Z,82.10
2022-09-25T10:18:57.367Z,81.90
2022-09-25T10:21:29.664Z,80.80
2022-09-25T10:23:58.602Z,81.30
2022-09-25T10:26:28.594Z,81.60
2022-09-25T10:29:00.472Z,81.50
2022-09-25T10:31:39.744Z,81.30
2022-09-25T10:34:17.669Z,81.20
2022-09-25T10:36:53.877Z,77.90
2022-09-25T10:39:43.091Z,77.50
2022-09-25T10:42:37.850Z,78.50
2022-09-25T10:45:30.945Z,78.70
2022-09-25T10:48:16.382Z,79.20
2022-09-25T10:50:44.144Z,79.50
2022-09-25T10:53:30.699Z,80.40
2022-09-25T10:56:09.432Z,80.50
2022-09-25T10:58:43.299Z,79.00
2022-09-25T11:01:13.423Z,78.80
2022-09-25T11:03:55.230Z,79.20
2022-09-25T11:06:27.388Z,79.70
2022-09-25T11:09:11.669Z,79.80
2022-09-25T11:11:39.948Z,79.80
2022-09-25T11:14:22.663Z,79.60
2022-09-25T11:16:58.069Z,79.40
2022-09-25T11:19:29.807Z,80.40
2022-09-25T11:22:19.704Z,79.50
2022-09-25T11:25:11.883Z,79.50
2022-09-25T11:27:44.538Z,79.90
2022-09-25T11:30:18.701Z,80.00
2022-09-25T11:33:03.070Z,80.00
2022-09-25T11:36:02.279Z,79.90
2022-09-25T11:38:53.643Z,80.00
2022-09-25T11:41:31.632Z,80.00
2022-09-25T11:44:27.804Z,79.90
2022-09-25T11:47:15.880Z,80.00
2022-09-25T11:49:43.157Z,80.40
2022-09-25T11:52:18.968Z,80.60
2022-09-25T11:55:02.364Z,80.80
2022-09-25T11:57:52.837Z,81.00
2022-09-25T12:00:26.355Z,80.80
2022-09-25T12:03:21.015Z,80.70
2022-09-25T12:06:05.750Z,80.70
2022-09-25T12:08:57.299Z,80.40
2022-09-25T12:11:45.906Z,80.60
2022-09-25T12:14:45.295Z,79.90
2022-09-25T12:17:55.377Z,79.70
2022-09-25T12:20:25.080Z,79.00
2022-09-25T12:23:14.265Z,79.10
2022-09-25T12:26:02.640Z,78.70
2022-09-25T12:28:52.304Z,78.70
2022-09-25T12:31:57.249Z,78.70
2022-09-25T12:35:22.185Z,78.40
2022-09-25T12:38:11.880Z,78.10
2022-09-25T12:40:57.485Z,78.10
2022-09-25T12:43:33.546Z,78.40
2022-09-25T12:46:35.260Z,78.60
2022-09-25T12:49:23.302Z,79.40
2022-09-25T12:51:52.065Z,79.10
2022-09-25T12:54:32.572Z,79.00
2022-09-25T12:57:09.676Z,79.50
2022-09-25T12:59:57.837Z,79.10
2022-09-25T13:03:02.183Z,79.20
2022-09-25T13:05:46.490Z,79.30
2022-09-25T13:08:35.699Z,78.90
2022-09-25T13:11:13.489Z,78.60
2022-09-25T13:13:49.779Z,78.50
2022-09-25T13:16:17.221Z,79.00
2022-09-25T13:19:23.574Z,79.20
2022-09-25T13:21:50.716Z,79.70
2022-09-25T13:24:18.489Z,79.80
2022-09-25T13:26:52.829Z,80.10
2022-09-25T13:29:28.076Z,80.40
2022-09-25T13:32:29.008Z,80.60
2022-09-25T13:35:00.458Z,80.80
2022-09-25T13:37:31.967Z,81.20
2022-09-25T13:40:19.161Z,81.90
2022-09-25T13:42:47.689Z,82.20
2022-09-25T13:45:37.429Z,82.80
2022-09-25T13:48:30.328Z,83.70
2022-09-25T13:51:22.284Z,84.30
2022-09-25T13:54:00.145Z,84.80
2022-09-25T13:56:33.882Z,85.10
2022-09-25T13:59:02.417Z,85.20
2022-09-25T14:01:42.374Z,85.20
2022-09-25T14:04:15.277Z,85.20
2022-09-25T14:06:44.794Z,84.90
2022-09-25T14:09:20.825Z,84.60
2022-09-25T14:12:00.005Z,84.70
2022-09-25T14:14:42.601Z,84.30
2022-09-25T14:17:16.591Z,83.40
2022-09-25T14:19:47.264Z,82.70
2022-09-25T14:22:36.317Z,81.90
2022-09-25T14:25:03.360Z,81.80
2022-09-25T14:27:30.387Z,82.20
2022-09-25T14:30:11.270Z,82.90
2022-09-25T14:33:05.486Z,83.80
2022-09-25T14:35:47.830Z,83.40
2022-09-25T14:38:37.216Z,82.90
2022-09-25T14:41:22.630Z,83.10
2022-09-25T14:44:03.716Z,83.80
2022-09-25T14:46:34.293Z,84.10
2022-09-25T14:49:24.235Z,83.60
2022-09-25T14:51:54.849Z,83.10
2022-09-25T14:54:25.149Z,82.30
2022-09-25T14:56:56.736Z,81.60
2022-09-25T14:59:43.532Z,81.40
2022-09-25T15:02:22.751Z,81.80
2022-09-25T15:04:51.143Z,82.40
2022-09-25T15:07:23.145Z,82.80
2022-09-25T15:09:55.252Z,83.00
2022-09-25T15:12:29.398Z,83.20
2022-09-25T15:15:11.421Z,83.50
2022-09-25T15:17:50.968Z,83.80
2022-09-25T15:20:21.615Z,84.00
2022-09-25T15:22:56.278Z,84.20
2022-09-25T15:25:53.917Z,84.30
2022-09-25T15:28:25.342Z,84.20
2022-09-25T15:30:56.023Z,84.00
2022-09-25T15:33:26.567Z,83.70
2022-09-25T15:36:24.169Z,83.70
2022-09-25T15:38:56.760Z,83.50
2022-09-25T15:41:23.925Z,83.40
2022-09-25T15:43:54.069Z,83.60
2022-09-25T15:46:38.428Z,83.60
2022-09-25T15:49:06.191Z,84.00
2022-09-25T15:51:35.597Z,84.50
2022-09-25T15:54:06.590Z,84.80
2022-09-25T15:56:51.098Z,85.20
2022-09-25T15:59:22.844Z,85.70
2022-09-25T16:02:09.050Z,85.80
2022-09-25T16:04:49.571Z,86.00
2022-09-25T16:07:37.817Z,86.00
2022-09-25T16:10:13.647Z,86.20
2022-09-25T16:12:45.961Z,86.30
2022-09-25T16:15:27.735Z,86.30
2022-09-25T16:18:05.947Z,86.80
2022-09-25T16:20:41.614Z,87.10
2022-09-25T16:23:29.896Z,87.20
2022-09-25T16:26:00.168Z,87.60
2022-09-25T16:28:34.027Z,87.60
2022-09-25T16:31:04.687Z,87.70
2022-09-25T16:33:42.636Z,87.80
2022-09-25T16:36:17.685Z,87.90
2022-09-25T16:39:12.656Z,87.80
2022-09-25T16:41:49.442Z,87.80
2022-09-25T16:44:22.384Z,87.90
2022-09-25T16:46:52.472Z,88.20
2022-09-25T16:49:22.272Z,88.40
2022-09-25T16:51:51.469Z,88.30
2022-09-25T16:54:21.490Z,88.60
2022-09-25T16:56:49.177Z,88.80
2022-09-25T16:59:22.752Z,89.10
2022-09-25T17:01:52.634Z,89.40
2022-09-25T17:04:26.104Z,89.80
2022-09-25T17:06:58.101Z,90.10
2022-09-25T17:09:27.386Z,90.30
2022-09-25T17:12:03.470Z,90.40
2022-09-25T17:14:30.712Z,90.60
2022-09-25T17:16:57.993Z,90.60
2022-09-25T17:19:25.679Z,90.80
2022-09-25T17:21:54.077Z,90.90
2022-09-25T17:24:23.917Z,91.00
2022-09-25T17:26:52.011Z,91.10
2022-09-25T17:29:20.292Z,91.20
2022-09-25T17:31:47.446Z,91.30
2022-09-25T17:34:21.018Z,91.30
2022-09-25T17:36:47.996Z,91.30
2022-09-25T17:39:15.046Z,91.30
2022-09-25T17:41:42.332Z,91.40
2022-09-25T17:44:21.756Z,91.40
2022-09-25T17:46:49.732Z,91.50
2022-09-25T17:49:17.299Z,91.50
2022-09-25T17:51:44.745Z,91.50
2022-09-25T17:54:13.367Z,91.50
2022-09-25T17:56:42.650Z,91.50
2022-09-25T17:59:09.855Z,91.60
2022-09-25T18:01:39.676Z,91.70
2022-09-25T18:04:20.052Z,91.70
2022-09-25T18:06:48.930Z,91.70
2022-09-25T18:09:16.337Z,91.70
2022-09-25T18:11:44.120Z,91.70
2022-09-25T18:14:12.923Z,91.80
2022-09-25T18:16:42.327Z,91.90
2022-09-25T18:19:38.650Z,92.00
2022-09-25T18:22:19.109Z,92.00
2022-09-25T18:24:56.758Z,92.00
2022-09-25T18:27:26.747Z,92.00
2022-09-25T18:29:54.252Z,92.10
2022-09-25T18:32:21.944Z,92.20
2022-09-25T18:34:48.929Z,92.20
2022-09-25T18:37:16.140Z,92.30
2022-09-25T18:39:44.626Z,92.30
2022-09-25T18:42:11.710Z,92.30
2022-09-25T18:44:42.692Z,92.40
2022-09-25T18:47:11.113Z,92.50
2022-09-25T18:49:38.139Z,92.60
2022-09-25T18:52:05.704Z,92.60
2022-09-25T18:54:32.739Z,92.70
2022-09-25T18:56:59.737Z,92.70
2022-09-25T18:59:27.024Z,92.80
2022-09-25T19:01:55.862Z,92.80
2022-09-25T19:04:23.242Z,92.80
2022-09-25T19:06:50.322Z,92.70
2022-09-25T19:09:17.711Z,92.70
2022-09-25T19:11:45.347Z,92.70
2022-09-25T19:14:14.743Z,92.80
2022-09-25T19:16:41.856Z,92.80
2022-09-25T19:19:09.296Z,92.80
2022-09-25T19:21:36.342Z,92.90
2022-09-25T19:24:03.534Z,93.00
2022-09-25T19:26:30.997Z,93.00
2022-09-25T19:28:57.997Z,93.10
2022-09-25T19:31:26.258Z,93.20
2022-09-25T19:33:54.851Z,93.30
2022-09-25T19:36:28.137Z,93.30
2022-09-25T19:38:55.105Z,93.30
2022-09-25T19:41:26.477Z,93.30
2022-09-25T19:43:57.139Z,93.40
2022-09-25T19:46:25.169Z,93.40
2022-09-25T19:48:52.666Z,93.40
2022-09-25T19:51:22.293Z,93.40
2022-09-25T19:53:49.690Z,93.50
2022-09-25T19:56:19.146Z,93.50
2022-09-25T19:58:50.908Z,93.50
2022-09-25T20:01:19.501Z,93.60
2022-09-25T20:03:46.607Z,93.50
2022-09-25T20:06:15.744Z,93.60
2022-09-25T20:08:42.727Z,93.60
2022-09-25T20:11:18.462Z,93.60
2022-09-25T20:13:47.251Z,93.60
2022-09-25T20:16:17.425Z,93.60
2022-09-25T20:18:53.611Z,93.60
2022-09-25T20:21:23.305Z,93.90
2022-09-25T20:23:55.085Z,93.60
2022-09-25T20:26:23.310Z,93.60
2022-09-25T20:28:57.046Z,93.60
2022-09-25T20:31:25.641Z,93.60
2022-09-25T20:33:53.097Z,93.60
2022-09-25T20:36:20.510Z,93.60
2022-09-25T20:38:54.199Z,93.60
2022-09-25T20:41:22.465Z,93.60
2022-09-25T20:43:55.489Z,93.60
2022-09-25T20:46:24.028Z,93.60
2022-09-25T20:48:52.582Z,93.60
2022-09-25T20:51:28.389Z,93.60
2022-09-25T20:53:58.261Z,93.60
2022-09-25T20:56:26.184Z,93.60
2022-09-25T20:58:55.637Z,93.60
2022-09-25T21:01:25.706Z,93.70
2022-09-25T21:03:53.356Z,93.70
2022-09-25T21:06:25.624Z,93.70
2022-09-25T21:08:58.122Z,93.70
2022-09-25T21:11:26.590Z,93.70
2022-09-25T21:13:58.062Z,93.70
2022-09-25T21:16:27.144Z,93.60
2022-09-25T21:18:56.740Z,93.60
2022-09-25T21:21:25.398Z,93.50
2022-09-25T21:23:54.792Z,93.50
2022-09-25T21:26:24.258Z,93.60
2022-09-25T21:28:52.669Z,93.60
2022-09-25T21:31:22.939Z,93.70
2022-09-25T21:33:54.766Z,93.70
2022-09-25T21:36:22.694Z,93.80
2022-09-25T21:38:50.090Z,93.80
2022-09-25T21:41:19.711Z,93.90
2022-09-25T21:43:47.203Z,93.90
2022-09-25T21:46:19.465Z,93.90
2022-09-25T21:49:01.874Z,93.90
2022-09-25T21:51:32.356Z,93.80
2022-09-25T21:54:01.020Z,93.80
2022-09-25T21:56:30.575Z,93.70
2022-09-25T21:59:01.873Z,93.70
2022-09-25T22:01:35.243Z,93.60
2022-09-25T22:04:03.756Z,93.60
2022-09-25T22:06:36.818Z,93.60
2022-09-25T22:09:16.430Z,93.60
2022-09-25T22:11:43.713Z,93.60
2022-09-25T22:14:15.787Z,93.50
2022-09-25T22:16:45.328Z,93.50
2022-09-25T22:19:21.992Z,93.50
2022-09-25T22:21:51.304Z,93.50
2022-09-25T22:24:18.697Z,93.40
2022-09-25T22:26:47.558Z,93.40
2022-09-25T22:29:16.535Z,93.40
2022-09-25T22:31:44.520Z,93.30
2022-09-25T22:34:20.998Z,93.40
2022-09-25T22:36:49.329Z,93.50
2022-09-25T22:39:18.509Z,93.40
2022-09-25T22:41:52.882Z,93.50
2022-09-25T22:44:20.860Z,93.50
2022-09-25T22:46:48.294Z,93.60
2022-09-25T22:49:15.385Z,93.70
2022-09-25T22:51:42.407Z,93.80
2022-09-25T22:54:12.872Z,93.90
2022-09-25T22:56:40.164Z,93.90
2022-09-25T22:59:10.152Z,94.00
2022-09-25T23:01:50.148Z,94.10
2022-09-25T23:04:20.543Z,94.10
2022-09-25T23:06:48.600Z,94.10
2022-09-25T23:09:19.081Z,94.20
2022-09-25T23:11:46.669Z,94.30
2022-09-25T23:14:26.242Z,94.30
2022-09-25T23:16:54.377Z,94.30
2022-09-25T23:19:22.269Z,94.30
2022-09-25T23:21:51.516Z,94.20
2022-09-25T23:24:20.712Z,94.30
2022-09-25T23:26:48.245Z,94.20
2022-09-25T23:29:17.518Z,94.20
2022-09-25T23:31:46.479Z,94.20
2022-09-25T23:34:14.243Z,94.10
2022-09-25T23:36:42.009Z,94.20
2022-09-25T23:39:10.753Z,94.20
2022-09-25T23:41:39.676Z,94.20
2022-09-25T23:44:08.513Z,94.30
2022-09-25T23:46:38.434Z,94.30
2022-09-25T23:49:06.827Z,94.30
2022-09-25T23:51:34.397Z,94.40
2022-09-25T23:54:02.414Z,94.60
2022-09-25T23:56:31.785Z,94.70
2022-09-25T23:59:01.257Z,94.70
